nws-alerts: Checking more than four warning/county codes can delay the loading of your pages. You should use a cron job to get the data.

Nearby METAR Reports

 

KOXC - Oxford/Waterbury, Connecticut, USA
Distance from station: NW 7mi, 11km
Updated: 10/14/2019 11:51am
Partly cloudy
Partly cloudy
 Wind from SSW
Wind: SSW 7 mph , 11 km/h
Temperature: 63°F , 17°C
Dew Point: 52°F , 11°C
Humidity: 68%
Barometer: 29.98 inHg , 1015.2 hPa
Clouds: Partly cloudy
Visibility: 10 miles , 16 km
Cloud details: Partly cloudy 2300 ft
2019/10/14 15:51 KOXC 141551Z 21006KT 10SM SCT023 17/11 A2998 RMK AO2 SLP162 T01720111
KHVN - New Haven/Tweed, Connecticut, USA
Distance from station: SE 13mi, 20km
Updated: 10/14/2019 11:53am
Clear
Clear
 Wind from S
Wind: S 8 mph , 13 km/h
Temperature: 64°F , 18°C
Dew Point: 55°F , 13°C
Humidity: 73%
Barometer: 29.98 inHg , 1015.2 hPa
Clouds: Clear
Visibility: 10 miles , 16 km
2019/10/14 15:53 KHVN 141553Z 17007KT 10SM CLR 18/13 A2998 RMK AO2 SLP151 T01830133 $
 
KMMK - Meriden, Connecticut, USA
Distance from station: NE 13mi, 21km
Updated: 10/14/2019 11:53am
Few Clouds
Few Clouds
 Wind from WSW
Wind: WSW 3 mph , 6 km/h
Temperature: 63°F , 17°C
Dew Point: 52°F , 11°C
Humidity: 68%
Barometer: 29.97 inHg , 1014.9 hPa
Clouds: Few Clouds
Visibility: 10 miles , 16 km
Cloud details: Few Clouds 2600 ft
2019/10/14 15:53 KMMK 141553Z AUTO 24003KT 10SM FEW026 17/11 A2997 RMK AO2 SLP147 T01720106
KBDR - Bridgeport, Connecticut, USA
Distance from station: SSW 17mi, 27km
Updated: 10/14/2019 11:52am
Clear
Clear
 Wind from SSW
Wind: SSW 8 mph , 13 km/h
Temperature: 64°F , 18°C
Dew Point: 55°F , 13°C
Humidity: 73%
Barometer: 29.98 inHg , 1015.2 hPa
Clouds: Clear
Visibility: 10 miles , 16 km
2019/10/14 15:52 KBDR 141552Z 20007KT 10SM CLR 18/13 A2998 RMK AO2 SLP151 T01780128
 
KDXR - Danbury, Connecticut, USA
Distance from station: W 23mi, 38km
Updated: 10/14/2019 11:53am
Light rain, Clear
Light rain, Clear
 Wind from W
Wind: W 7 mph , 11 km/h
Temperature: 64°F , 18°C
Dew Point: 50°F , 10°C
Humidity: 60%
Barometer: 29.97 inHg , 1014.9 hPa
Summary: Light rain
Clouds: Clear
Visibility: 10 miles , 16 km
2019/10/14 15:53 KDXR 141553Z 27006KT 10SM -RA CLR 18/10 A2997 RMK AO2 RAB45 SLP149 P0000 T01830100